createdAt,value
2018-07-05T00:00:05.730Z,100356.42
2018-07-05T00:01:20.616Z,100357.81
2018-07-05T00:02:35.296Z,100359.00
2018-07-05T00:03:50.107Z,100355.03
2018-07-05T00:05:04.713Z,100353.05
2018-07-05T00:06:19.500Z,100354.64
2018-07-05T00:07:34.291Z,100356.63
2018-07-05T00:08:49.075Z,100359.03
2018-07-05T00:10:03.809Z,100354.05
2018-07-05T00:11:18.586Z,100353.45
2018-07-05T00:12:33.304Z,100351.68
2018-07-05T00:13:48.065Z,100349.48
2018-07-05T00:15:02.907Z,100349.88
2018-07-05T00:16:17.750Z,100352.66
2018-07-05T00:17:32.579Z,100352.66
2018-07-05T00:18:48.747Z,100355.23
2018-07-05T00:20:03.521Z,100362.20
2018-07-05T00:21:18.236Z,100363.59
2018-07-05T00:22:33.105Z,100363.00
2018-07-05T00:23:47.956Z,100361.61
2018-07-05T00:25:02.693Z,100359.63
2018-07-05T00:26:17.533Z,100352.66
2018-07-05T00:27:32.348Z,100356.45
2018-07-05T00:28:47.146Z,100357.45
2018-07-05T00:30:01.749Z,100357.45
2018-07-05T00:31:16.508Z,100359.06
2018-07-05T00:32:31.274Z,100356.27
2018-07-05T00:33:46.084Z,100357.66
2018-07-05T00:35:00.775Z,100356.48
2018-07-05T00:36:15.578Z,100356.72
2018-07-05T00:37:30.387Z,100351.73
2018-07-05T00:38:45.035Z,100356.13
2018-07-05T00:39:59.825Z,100357.72
2018-07-05T00:41:14.689Z,100356.92
2018-07-05T00:42:29.530Z,100348.77
2018-07-05T00:43:44.275Z,100348.18
2018-07-05T00:44:59.133Z,100350.38
2018-07-05T00:46:13.882Z,100341.22
2018-07-05T00:47:28.364Z,100335.44
2018-07-05T00:48:43.228Z,100333.25
2018-07-05T00:49:58.050Z,100331.26
2018-07-05T00:51:12.958Z,100337.42
2018-07-05T00:52:27.778Z,100338.22
2018-07-05T00:53:42.636Z,100340.00
2018-07-05T00:54:57.437Z,100334.44
2018-07-05T00:56:12.120Z,100335.23
2018-07-05T00:57:26.848Z,100334.64
2018-07-05T00:58:41.669Z,100336.83
2018-07-05T00:59:56.424Z,100336.23
2018-07-05T01:01:11.194Z,100336.23
2018-07-05T01:02:25.948Z,100339.02
2018-07-05T01:03:40.764Z,100336.45
2018-07-05T01:04:55.596Z,100328.09
2018-07-05T01:06:10.418Z,100332.68
2018-07-05T01:07:25.177Z,100332.68
2018-07-05T01:08:39.910Z,100332.88
2018-07-05T01:09:54.634Z,100333.48
2018-07-05T01:11:09.426Z,100339.64
2018-07-05T01:12:24.102Z,100336.65
2018-07-05T01:13:38.831Z,100343.02
2018-07-05T01:14:53.507Z,100342.22
2018-07-05T01:16:08.225Z,100343.61
2018-07-05T01:17:22.984Z,100346.78
2018-07-05T01:18:38.016Z,100344.80
2018-07-05T01:19:53.639Z,100341.22
2018-07-05T01:21:08.392Z,100351.56
2018-07-05T01:22:23.297Z,100353.34
2018-07-05T01:23:38.095Z,100355.53
2018-07-05T01:24:52.760Z,100351.35
2018-07-05T01:26:07.510Z,100351.73
2018-07-05T01:27:22.316Z,100353.93
2018-07-05T01:28:37.064Z,100353.13
2018-07-05T01:29:51.746Z,100352.30
2018-07-05T01:31:06.506Z,100363.68
2018-07-05T01:32:21.296Z,100365.07
2018-07-05T01:33:36.069Z,100363.09
2018-07-05T01:34:50.944Z,100361.48
2018-07-05T01:36:05.795Z,100358.91
2018-07-05T01:37:20.539Z,100362.87
2018-07-05T01:38:35.327Z,100367.62
2018-07-05T01:39:50.060Z,100367.06
2018-07-05T01:41:04.891Z,100360.66
2018-07-05T01:42:19.524Z,100359.27
2018-07-05T01:43:34.246Z,100357.07
2018-07-05T01:44:49.096Z,100353.48
2018-07-05T01:46:03.847Z,100354.28
2018-07-05T01:47:18.620Z,100361.04
2018-07-05T01:48:33.456Z,100354.88
2018-07-05T01:49:48.343Z,100352.09
2018-07-05T01:51:03.251Z,100346.31
2018-07-05T01:52:17.871Z,100344.92
2018-07-05T01:53:32.608Z,100353.07
2018-07-05T01:54:47.506Z,100352.27
2018-07-05T01:56:02.335Z,100351.47
2018-07-05T01:57:17.112Z,100357.05
2018-07-05T01:58:31.916Z,100349.88
2018-07-05T01:59:46.861Z,100351.06
2018-07-05T02:01:01.608Z,100352.45
2018-07-05T02:02:16.314Z,100355.03
2018-07-05T02:03:31.091Z,100350.44
2018-07-05T02:04:45.940Z,100348.45
2018-07-05T02:06:00.480Z,100342.88
2018-07-05T02:07:15.248Z,100343.48
2018-07-05T02:08:30.056Z,100341.28
2018-07-05T02:09:44.865Z,100339.30
2018-07-05T02:10:59.623Z,100337.91
2018-07-05T02:12:14.360Z,100339.09
2018-07-05T02:13:29.146Z,100339.89
2018-07-05T02:14:43.900Z,100340.69
2018-07-05T02:15:58.649Z,100335.12
2018-07-05T02:17:13.444Z,100333.94
2018-07-05T02:18:28.105Z,100333.34
2018-07-05T02:19:42.866Z,100333.94
2018-07-05T02:20:57.664Z,100333.73
2018-07-05T02:22:12.237Z,100333.13
2018-07-05T02:23:27.120Z,100331.53
2018-07-05T02:24:41.716Z,100335.71
2018-07-05T02:25:56.608Z,100337.31
2018-07-05T02:27:11.192Z,100339.50
2018-07-05T02:28:25.977Z,100341.91
2018-07-05T02:29:40.723Z,100338.32
2018-07-05T02:30:55.445Z,100336.13
2018-07-05T02:32:10.080Z,100339.71
2018-07-05T02:33:24.792Z,100343.09
2018-07-05T02:34:39.542Z,100345.87
2018-07-05T02:35:54.393Z,100350.85
2018-07-05T02:37:13.359Z,100347.47
2018-07-05T02:38:28.111Z,100350.67
2018-07-05T02:39:49.020Z,100346.29
2018-07-05T02:41:04.672Z,100339.53
2018-07-05T02:42:19.508Z,100338.52
2018-07-05T02:43:34.266Z,100338.52
2018-07-05T02:44:49.068Z,100340.12
2018-07-05T02:46:03.895Z,100344.51
2018-07-05T02:47:18.511Z,100334.55
2018-07-05T02:48:33.379Z,100334.76
2018-07-05T02:49:48.066Z,100334.76
2018-07-05T02:51:02.853Z,100331.38
2018-07-05T02:52:17.673Z,100330.97
2018-07-05T02:53:32.434Z,100325.98
2018-07-05T02:54:47.186Z,100327.98
2018-07-05T02:56:01.968Z,100330.17
2018-07-05T02:57:16.780Z,100329.37
2018-07-05T02:58:31.572Z,100327.17
2018-07-05T02:59:46.286Z,100333.55
2018-07-05T03:01:01.101Z,100324.39
2018-07-05T03:02:15.868Z,100323.59
2018-07-05T03:03:30.712Z,100322.20
2018-07-05T03:04:45.348Z,100325.78
2018-07-05T03:06:00.043Z,100317.81
2018-07-05T03:07:14.867Z,100317.02
2018-07-05T03:08:29.682Z,100322.80
2018-07-05T03:09:44.789Z,100328.36
2018-07-05T03:10:59.413Z,100330.94
2018-07-05T03:12:14.481Z,100332.55
2018-07-05T03:13:29.232Z,100331.36
2018-07-05T03:14:44.004Z,100332.75
2018-07-05T03:15:58.848Z,100331.95
2018-07-05T03:17:13.505Z,100329.96
2018-07-05T03:18:28.256Z,100329.16
2018-07-05T03:19:43.017Z,100331.36
2018-07-05T03:20:57.727Z,100325.98
2018-07-05T03:22:12.604Z,100328.57
2018-07-05T03:23:27.267Z,100332.55
2018-07-05T03:24:42.072Z,100330.77
2018-07-05T03:25:56.785Z,100327.77
2018-07-05T03:27:11.683Z,100331.36
2018-07-05T03:28:26.390Z,100323.98
2018-07-05T03:29:41.065Z,100325.97
2018-07-05T03:30:55.780Z,100325.97
2018-07-05T03:32:10.571Z,100326.56
2018-07-05T03:33:25.330Z,100325.16
2018-07-05T03:34:40.065Z,100320.78
2018-07-05T03:35:54.882Z,100311.83
2018-07-05T03:37:09.649Z,100318.80
2018-07-05T03:38:24.401Z,100313.23
2018-07-05T03:39:39.200Z,100313.23
2018-07-05T03:40:53.966Z,100307.45
2018-07-05T03:42:08.704Z,100312.42
2018-07-05T03:43:23.501Z,100313.02
2018-07-05T03:44:38.280Z,100310.62
2018-07-05T03:45:53.068Z,100316.19
2018-07-05T03:47:07.801Z,100317.58
2018-07-05T03:48:22.556Z,100318.77
2018-07-05T03:49:37.296Z,100324.55
2018-07-05T03:50:51.953Z,100321.31
2018-07-05T03:52:06.698Z,100324.09
2018-07-05T03:53:21.424Z,100328.87
2018-07-05T03:54:36.151Z,100332.04
2018-07-05T03:55:50.812Z,100333.44
2018-07-05T03:57:05.556Z,100335.63
2018-07-05T03:58:20.389Z,100331.06
2018-07-05T03:59:35.168Z,100338.02
2018-07-05T04:00:49.960Z,100341.61
2018-07-05T04:02:04.644Z,100337.67
2018-07-05T04:03:19.402Z,100341.25
2018-07-05T04:04:34.102Z,100348.63
2018-07-05T04:05:48.729Z,100344.66
2018-07-05T04:07:04.199Z,100346.64
2018-07-05T04:08:18.984Z,100350.23
2018-07-05T04:09:33.832Z,100353.61
2018-07-05T04:10:48.622Z,100352.22
2018-07-05T04:12:03.444Z,100348.42
2018-07-05T04:13:18.301Z,100352.22
2018-07-05T04:14:33.050Z,100356.98
2018-07-05T04:15:47.899Z,100353.41
2018-07-05T04:17:02.467Z,100353.41
2018-07-05T04:18:17.131Z,100356.39
2018-07-05T04:19:31.875Z,100354.20
2018-07-05T04:20:46.706Z,100351.03
2018-07-05T04:22:01.449Z,100358.59
2018-07-05T04:23:16.056Z,100351.00
2018-07-05T04:24:30.634Z,100355.53
2018-07-05T04:25:45.219Z,100355.71
2018-07-05T04:27:00.106Z,100352.30
2018-07-05T04:28:14.868Z,100353.07
2018-07-05T04:29:30.590Z,100349.88
2018-07-05T04:30:45.326Z,100345.28
2018-07-05T04:32:00.142Z,100346.02
2018-07-05T04:33:14.846Z,100348.17
2018-07-05T04:34:29.581Z,100354.93
2018-07-05T04:35:48.247Z,100361.62
2018-07-05T04:37:03.016Z,100348.29
2018-07-05T04:38:17.909Z,100347.88
2018-07-05T04:39:32.668Z,100340.43
2018-07-05T04:40:47.439Z,100341.62
2018-07-05T04:42:02.130Z,100336.44
2018-07-05T04:43:16.972Z,100336.19
2018-07-05T04:44:31.556Z,100340.75
2018-07-05T04:45:46.378Z,100345.89
2018-07-05T04:47:01.065Z,100345.03
2018-07-05T04:48:15.821Z,100343.22
2018-07-05T04:49:30.484Z,100337.83
2018-07-05T04:50:45.265Z,100339.98
2018-07-05T04:51:59.991Z,100332.81
2018-07-05T04:53:14.533Z,100334.20
2018-07-05T04:54:29.277Z,100328.44
2018-07-05T04:55:44.034Z,100326.23
2018-07-05T04:56:58.816Z,100336.36
2018-07-05T04:58:13.680Z,100347.49
2018-07-05T04:59:28.465Z,100349.99
2018-07-05T05:00:43.146Z,100353.95
2018-07-05T05:01:57.928Z,100360.49
2018-07-05T05:03:12.645Z,100353.28
2018-07-05T05:04:27.369Z,100357.62
2018-07-05T05:05:42.150Z,100357.25
2018-07-05T05:06:56.888Z,100366.56
2018-07-05T05:08:11.860Z,100371.30
2018-07-05T05:09:26.537Z,100374.91
2018-07-05T05:10:41.272Z,100375.70
2018-07-05T05:11:56.158Z,100380.69
2018-07-05T05:13:11.044Z,100376.86
2018-07-05T05:14:25.923Z,100375.47
2018-07-05T05:15:40.903Z,100375.70
2018-07-05T05:16:55.508Z,100375.47
2018-07-05T05:18:10.376Z,100375.05
2018-07-05T05:19:25.126Z,100372.85
2018-07-05T05:20:39.862Z,100377.41
2018-07-05T05:21:54.587Z,100384.36
2018-07-05T05:23:09.567Z,100383.94
2018-07-05T05:24:24.268Z,100378.97
2018-07-05T05:25:38.975Z,100380.95
2018-07-05T05:26:53.646Z,100374.75
2018-07-05T05:28:08.425Z,100372.94
2018-07-05T05:29:23.264Z,100376.86
2018-07-05T05:30:38.098Z,100376.06
2018-07-05T05:31:52.930Z,100371.44
2018-07-05T05:33:07.821Z,100372.03
2018-07-05T05:34:22.444Z,100370.43
2018-07-05T05:35:37.196Z,100363.64
2018-07-05T05:36:52.068Z,100363.27
2018-07-05T05:38:06.803Z,100365.63
2018-07-05T05:39:21.723Z,100365.63
2018-07-05T05:40:36.368Z,100364.40
2018-07-05T05:41:51.300Z,100365.53
2018-07-05T05:43:06.076Z,100375.48
2018-07-05T05:44:20.644Z,100367.86
2018-07-05T05:45:35.350Z,100365.67
2018-07-05T05:46:50.147Z,100366.71
2018-07-05T05:48:05.290Z,100363.55
2018-07-05T05:49:20.056Z,100361.95
2018-07-05T05:50:34.810Z,100366.33
2018-07-05T05:51:49.568Z,100355.80
2018-07-05T05:53:04.332Z,100358.96
2018-07-05T05:54:19.461Z,100361.36
2018-07-05T05:55:34.696Z,100356.53
2018-07-05T05:56:49.412Z,100359.05
2018-07-05T05:58:04.073Z,100361.36
2018-07-05T05:59:18.718Z,100360.05
2018-07-05T06:00:33.420Z,100356.43
2018-07-05T06:01:48.573Z,100351.78
2018-07-05T06:03:03.611Z,100347.33
2018-07-05T06:04:18.360Z,100347.86
2018-07-05T06:05:33.103Z,100346.90
2018-07-05T06:06:47.815Z,100339.95
2018-07-05T06:08:02.485Z,100346.90
2018-07-05T06:09:17.249Z,100350.69
2018-07-05T06:10:31.966Z,100353.09
2018-07-05T06:11:46.825Z,100356.25
2018-07-05T06:13:01.598Z,100354.48
2018-07-05T06:14:16.365Z,100364.59
2018-07-05T06:15:31.201Z,100365.60
2018-07-05T06:16:46.048Z,100365.84
2018-07-05T06:18:00.910Z,100370.81
2018-07-05T06:19:15.724Z,100371.61
2018-07-05T06:20:30.587Z,100377.17
2018-07-05T06:21:45.290Z,100381.34
2018-07-05T06:23:00.203Z,100385.34
2018-07-05T06:24:14.895Z,100393.52
2018-07-05T06:25:29.784Z,100388.17
2018-07-05T06:26:44.486Z,100391.38
2018-07-05T06:27:59.316Z,100393.20
2018-07-05T06:29:14.442Z,100393.41
2018-07-05T06:30:29.156Z,100387.42
2018-07-05T06:31:44.108Z,100391.80
2018-07-05T06:32:58.727Z,100397.58
2018-07-05T06:34:13.680Z,100388.66
2018-07-05T06:35:28.694Z,100398.00
2018-07-05T06:36:43.633Z,100391.05
2018-07-05T06:37:58.328Z,100393.48
2018-07-05T06:39:13.095Z,100394.08
2018-07-05T06:40:27.918Z,100394.08
2018-07-05T06:41:42.760Z,100391.72
2018-07-05T06:42:57.612Z,100389.75
2018-07-05T06:44:12.360Z,100385.58
2018-07-05T06:45:27.192Z,100393.54
2018-07-05T06:46:41.895Z,100384.98
2018-07-05T06:47:56.589Z,100385.20
2018-07-05T06:49:11.384Z,100384.40
2018-07-05T06:50:26.100Z,100388.41
2018-07-05T06:51:40.881Z,100385.63
2018-07-05T06:52:55.666Z,100388.41
2018-07-05T06:54:10.415Z,100385.03
2018-07-05T06:55:25.141Z,100390.22
2018-07-05T06:56:39.902Z,100394.59
2018-07-05T06:57:54.744Z,100395.41
2018-07-05T06:59:09.585Z,100400.38
2018-07-05T07:00:24.425Z,100400.38
2018-07-05T07:01:39.200Z,100403.36
2018-07-05T07:02:53.941Z,100409.14
2018-07-05T07:04:08.567Z,100405.18
2018-07-05T07:05:23.288Z,100403.58
2018-07-05T07:06:38.164Z,100401.01
2018-07-05T07:07:52.746Z,100404.00
2018-07-05T07:09:07.515Z,100400.42
2018-07-05T07:10:22.481Z,100397.88
2018-07-05T07:11:37.096Z,100400.08
2018-07-05T07:12:51.768Z,100395.10
2018-07-05T07:14:06.574Z,100395.91
2018-07-05T07:15:21.340Z,100400.08
2018-07-05T07:16:36.140Z,100400.08
2018-07-05T07:17:50.894Z,100398.44
2018-07-05T07:19:05.651Z,100401.47
2018-07-05T07:20:20.397Z,100402.05
2018-07-05T07:21:35.123Z,100407.23
2018-07-05T07:22:49.815Z,100405.84
2018-07-05T07:24:04.698Z,100415.58
2018-07-05T07:25:19.621Z,100415.80
2018-07-05T07:26:34.379Z,100420.17
2018-07-05T07:27:49.108Z,100415.20
2018-07-05T07:29:03.937Z,100414.61
2018-07-05T07:30:18.574Z,100410.44
2018-07-05T07:31:33.383Z,100413.02
2018-07-05T07:32:48.152Z,100419.75
2018-07-05T07:34:02.804Z,100419.54
2018-07-05T07:35:17.560Z,100412.59
2018-07-05T07:36:32.351Z,100416.76
2018-07-05T07:37:47.108Z,100412.00
2018-07-05T07:39:01.821Z,100421.94
2018-07-05T07:40:16.507Z,100415.37
2018-07-05T07:41:31.319Z,100416.52
2018-07-05T07:42:33.612Z,100417.91
2018-07-05T07:43:35.865Z,100417.91
2018-07-05T07:44:38.191Z,100415.71
2018-07-05T07:45:40.694Z,100420.69
2018-07-05T07:46:43.068Z,100416.76
2018-07-05T07:47:45.343Z,100422.53
2018-07-05T07:48:47.598Z,100418.57
2018-07-05T07:49:49.860Z,100423.33
2018-07-05T07:50:52.418Z,100426.70
2018-07-05T07:51:54.654Z,100419.75
2018-07-05T07:52:56.901Z,100424.13
2018-07-05T07:53:59.260Z,100424.34
2018-07-05T07:55:01.535Z,100422.16
2018-07-05T07:56:03.780Z,100420.17
2018-07-05T07:57:06.017Z,100423.75
2018-07-05T07:58:08.306Z,100417.39
2018-07-05T07:59:10.560Z,100414.23
2018-07-05T08:00:12.847Z,100415.63
2018-07-05T08:01:15.144Z,100415.04
2018-07-05T08:02:17.384Z,100411.45
2018-07-05T08:03:19.619Z,100417.81
2018-07-05T08:04:21.872Z,100416.64
2018-07-05T08:05:24.182Z,100416.64
2018-07-05T08:06:26.434Z,100418.62
2018-07-05T08:07:28.695Z,100417.44
2018-07-05T08:08:30.978Z,100418.24
2018-07-05T08:09:33.244Z,100418.03
2018-07-05T08:10:35.511Z,100413.27
2018-07-05T08:11:37.782Z,100417.06
2018-07-05T08:12:40.033Z,100416.47
2018-07-05T08:13:42.343Z,100420.65
2018-07-05T08:14:44.619Z,100420.65
2018-07-05T08:15:46.882Z,100425.62
2018-07-05T08:16:49.152Z,100423.05
2018-07-05T08:17:51.396Z,100416.09
2018-07-05T08:18:53.638Z,100423.85
2018-07-05T08:19:55.898Z,100420.27
2018-07-05T08:20:58.191Z,100416.31
2018-07-05T08:22:00.426Z,100412.14
2018-07-05T08:23:02.741Z,100415.72
2018-07-05T08:24:04.974Z,100412.94
2018-07-05T08:25:07.217Z,100416.52
2018-07-05T08:26:09.512Z,100407.38
2018-07-05T08:27:11.756Z,100413.74
2018-07-05T08:28:14.023Z,100406.58
2018-07-05T08:29:16.272Z,100413.95
2018-07-05T08:30:18.517Z,100411.55
2018-07-05T08:31:20.848Z,100413.95
2018-07-05T08:32:23.057Z,100418.72
2018-07-05T08:33:25.327Z,100416.73
2018-07-05T08:34:27.578Z,100409.78
2018-07-05T08:35:29.882Z,100409.78
2018-07-05T08:36:32.110Z,100414.76
2018-07-05T08:37:34.369Z,100411.98
2018-07-05T08:38:36.627Z,100412.22
2018-07-05T08:39:38.908Z,100412.56
2018-07-05T08:40:41.138Z,100418.37
2018-07-05T08:41:43.408Z,100415.59
2018-07-05T08:42:45.857Z,100416.39
2018-07-05T08:43:48.094Z,100415.24
2018-07-05T08:44:50.384Z,100414.86
2018-07-05T08:45:52.614Z,100421.02
2018-07-05T08:46:54.885Z,100412.08
2018-07-05T08:47:57.148Z,100416.47
2018-07-05T08:48:59.395Z,100418.06
2018-07-05T08:50:01.707Z,100412.30
2018-07-05T08:51:04.038Z,100415.08
2018-07-05T08:52:06.264Z,100412.30
2018-07-05T08:53:08.545Z,100418.06
2018-07-05T08:54:10.803Z,100413.30
2018-07-05T08:55:13.127Z,100413.30
2018-07-05T08:56:15.390Z,100413.30
2018-07-05T08:57:17.664Z,100412.72
2018-07-05T08:58:20.387Z,100409.13
2018-07-05T08:59:22.648Z,100411.33
2018-07-05T09:00:24.920Z,100412.72
2018-07-05T09:01:27.169Z,100408.34
2018-07-05T09:02:29.436Z,100403.78
2018-07-05T09:03:31.711Z,100403.78
2018-07-05T09:04:34.288Z,100402.98
2018-07-05T09:05:36.748Z,100402.98
2018-07-05T09:06:39.017Z,100402.19
2018-07-05T09:07:41.285Z,100405.77
2018-07-05T09:08:43.532Z,100401.38
2018-07-05T09:09:45.796Z,100405.59
2018-07-05T09:10:48.074Z,100401.22
2018-07-05T09:11:50.462Z,100403.41
2018-07-05T09:12:52.840Z,100407.58
2018-07-05T09:13:55.090Z,100407.58
2018-07-05T09:14:57.336Z,100407.37
2018-07-05T09:15:59.611Z,100408.16
2018-07-05T09:17:01.870Z,100410.15
2018-07-05T09:18:04.164Z,100407.37
2018-07-05T09:19:06.424Z,100404.59
2018-07-05T09:20:08.699Z,100409.55
2018-07-05T09:21:10.974Z,100410.15
2018-07-05T09:22:13.239Z,100408.16
2018-07-05T09:23:15.525Z,100402.39
2018-07-05T09:24:17.887Z,100408.76
2018-07-05T09:25:20.299Z,100408.76
2018-07-05T09:26:23.014Z,100405.39
2018-07-05T09:27:25.266Z,100412.92
2018-07-05T09:28:27.544Z,100408.55
2018-07-05T09:29:30.182Z,100408.76
2018-07-05T09:30:32.416Z,100407.95
2018-07-05T09:31:34.680Z,100407.37
2018-07-05T09:32:36.928Z,100410.15
2018-07-05T09:33:39.204Z,100408.97
2018-07-05T09:34:41.496Z,100405.17
2018-07-05T09:35:43.752Z,100401.80
2018-07-05T09:36:46.012Z,100404.00
2018-07-05T09:37:48.250Z,100402.02
2018-07-05T09:38:50.516Z,100405.80
2018-07-05T09:39:52.799Z,100406.40
2018-07-05T09:40:55.045Z,100403.62
2018-07-05T09:41:57.311Z,100403.83
2018-07-05T09:42:59.621Z,100404.42
2018-07-05T09:44:01.911Z,100403.83
2018-07-05T09:45:04.154Z,100401.84
2018-07-05T09:46:06.508Z,100402.44
2018-07-05T09:47:08.752Z,100404.04
2018-07-05T09:48:10.994Z,100405.43
2018-07-05T09:49:13.276Z,100399.87
2018-07-05T09:50:15.925Z,100403.66
2018-07-05T09:51:18.172Z,100401.47
2018-07-05T09:52:20.425Z,100398.09
2018-07-05T09:53:22.690Z,100400.29
2018-07-05T09:54:24.957Z,100397.51
2018-07-05T09:55:27.204Z,100396.92
2018-07-05T09:56:29.456Z,100392.75
2018-07-05T09:57:31.858Z,100397.96
2018-07-05T09:58:34.113Z,100396.57
2018-07-05T09:59:36.384Z,100399.35
2018-07-05T10:00:44.090Z,100402.34
2018-07-05T10:01:46.355Z,100400.36
2018-07-05T10:02:48.605Z,100398.38
2018-07-05T10:03:50.945Z,100404.16
2018-07-05T10:04:53.194Z,100405.34
2018-07-05T10:05:55.438Z,100395.02
2018-07-05T10:06:57.675Z,100394.80
2018-07-05T10:07:59.943Z,100395.02
2018-07-05T10:09:02.208Z,100391.64
2018-07-05T10:10:04.476Z,100383.50
2018-07-05T10:11:06.753Z,100389.06
2018-07-05T10:12:09.005Z,100388.27
2018-07-05T10:13:11.774Z,100393.23
2018-07-05T10:14:13.992Z,100389.06
2018-07-05T10:15:16.258Z,100382.11
2018-07-05T10:16:18.516Z,100385.11
2018-07-05T10:17:20.874Z,100389.87
2018-07-05T10:18:23.124Z,100385.11
2018-07-05T10:19:25.430Z,100388.69
2018-07-05T10:20:27.660Z,100387.89
2018-07-05T10:21:29.909Z,100392.27
2018-07-05T10:22:32.164Z,100390.88
2018-07-05T10:23:34.441Z,100391.09
2018-07-05T10:24:36.719Z,100387.13
2018-07-05T10:25:38.988Z,100387.93
2018-07-05T10:26:41.280Z,100388.52
2018-07-05T10:27:43.525Z,100394.30
2018-07-05T10:28:58.256Z,100383.97
2018-07-05T10:30:12.894Z,100382.58
2018-07-05T10:31:27.431Z,100398.68
2018-07-05T10:32:42.260Z,100387.55
2018-07-05T10:33:50.736Z,100393.91
2018-07-05T10:34:53.914Z,100391.13
2018-07-05T10:35:56.289Z,100389.36
2018-07-05T10:36:58.527Z,100398.51
2018-07-05T10:38:02.164Z,100397.70
2018-07-05T10:39:05.057Z,100388.77
2018-07-05T10:40:19.791Z,100393.53
2018-07-05T10:41:34.603Z,100391.77
2018-07-05T10:42:49.202Z,100390.16
2018-07-05T10:44:03.985Z,100395.94
2018-07-05T10:45:18.651Z,100396.98
2018-07-05T10:46:33.351Z,100401.16
2018-07-05T10:47:48.126Z,100398.38
2018-07-05T10:49:02.912Z,100399.77
2018-07-05T10:50:17.512Z,100403.94
2018-07-05T10:51:32.316Z,100409.13
2018-07-05T10:52:47.984Z,100403.34
2018-07-05T10:54:03.116Z,100412.28
2018-07-05T10:55:18.016Z,100407.52
2018-07-05T10:56:32.810Z,100413.67
2018-07-05T10:57:47.534Z,100412.88
2018-07-05T10:59:02.304Z,100410.09
2018-07-05T11:00:17.139Z,100415.66
2018-07-05T11:01:31.650Z,100414.47
2018-07-05T11:02:46.224Z,100417.05
2018-07-05T11:04:00.993Z,100413.43
2018-07-05T11:05:15.575Z,100414.82
2018-07-05T11:06:30.334Z,100410.65
2018-07-05T11:07:45.238Z,100414.82
2018-07-05T11:08:59.945Z,100414.82
2018-07-05T11:10:14.731Z,100412.28
2018-07-05T11:11:29.553Z,100410.09
2018-07-05T11:12:44.314Z,100416.21
2018-07-05T11:13:59.122Z,100413.67
2018-07-05T11:15:13.751Z,100409.50
2018-07-05T11:16:28.405Z,100410.30
2018-07-05T11:17:43.165Z,100418.06
2018-07-05T11:18:58.044Z,100414.69
2018-07-05T11:20:12.780Z,100415.48
2018-07-05T11:21:27.546Z,100407.14
2018-07-05T11:22:42.269Z,100415.70
2018-07-05T11:23:56.986Z,100409.92
2018-07-05T11:25:11.718Z,100404.56
2018-07-05T11:26:26.552Z,100404.78
2018-07-05T11:27:41.284Z,100403.17
2018-07-05T11:28:56.072Z,100400.39
2018-07-05T11:30:10.792Z,100400.98
2018-07-05T11:31:25.402Z,100403.17
2018-07-05T11:32:40.310Z,100411.73
2018-07-05T11:33:55.080Z,100411.52
2018-07-05T11:35:09.764Z,100411.73
2018-07-05T11:36:24.585Z,100406.17
2018-07-05T11:37:39.416Z,100409.75
2018-07-05T11:38:54.131Z,100401.99
2018-07-05T11:40:08.968Z,100411.73
2018-07-05T11:41:23.748Z,100406.17
2018-07-05T11:42:38.435Z,100403.17
2018-07-05T11:43:53.077Z,100399.21
2018-07-05T11:45:07.936Z,100389.47
2018-07-05T11:46:22.633Z,100393.65
2018-07-05T11:47:37.511Z,100389.69
2018-07-05T11:48:52.372Z,100394.06
2018-07-05T11:50:07.191Z,100384.54
2018-07-05T11:51:21.959Z,100388.71
2018-07-05T11:52:36.584Z,100389.13
2018-07-05T11:53:51.376Z,100381.80
2018-07-05T11:55:06.148Z,100387.95
2018-07-05T11:56:20.921Z,100374.25
2018-07-05T11:57:35.695Z,100380.61
2018-07-05T11:58:50.540Z,100382.59
2018-07-05T12:00:05.279Z,100383.78
2018-07-05T12:01:20.086Z,100385.17
2018-07-05T12:02:34.920Z,100381.59
2018-07-05T12:03:49.689Z,100380.78
2018-07-05T12:05:04.471Z,100378.21
2018-07-05T12:06:19.195Z,100378.00
2018-07-05T12:07:33.968Z,100383.36
2018-07-05T12:08:48.868Z,100378.59
2018-07-05T12:10:03.739Z,100384.75
2018-07-05T12:11:18.402Z,100381.16
2018-07-05T12:12:33.248Z,100388.50
2018-07-05T12:13:48.096Z,100385.34
2018-07-05T12:15:03.221Z,100387.32
2018-07-05T12:16:17.822Z,100392.09
2018-07-05T12:17:32.640Z,100396.27
2018-07-05T12:18:47.416Z,100391.50
2018-07-05T12:20:02.179Z,100391.28
2018-07-05T12:21:16.903Z,100393.48
2018-07-05T12:22:31.765Z,100390.48
2018-07-05T12:23:46.586Z,100394.66
2018-07-05T12:25:01.372Z,100388.08
2018-07-05T12:26:16.243Z,100390.27
2018-07-05T12:27:30.825Z,100393.65
2018-07-05T12:28:45.560Z,100397.23
2018-07-05T12:30:00.171Z,100393.65
2018-07-05T12:31:15.023Z,100400.39
2018-07-05T12:32:29.848Z,100403.77
2018-07-05T12:33:44.680Z,100407.14
2018-07-05T12:34:59.446Z,100405.95
2018-07-05T12:36:14.213Z,100399.37
2018-07-05T12:37:28.977Z,100409.92
2018-07-05T12:38:43.712Z,100405.75
2018-07-05T12:39:58.552Z,100404.73
2018-07-05T12:41:13.306Z,100402.55
2018-07-05T12:42:27.909Z,100404.73
2018-07-05T12:43:42.422Z,100406.92
2018-07-05T12:44:57.217Z,100408.11
2018-07-05T12:46:12.003Z,100404.52
2018-07-05T12:47:26.756Z,100401.74
2018-07-05T12:48:41.575Z,100401.74
2018-07-05T12:49:56.379Z,100405.91
2018-07-05T12:51:11.170Z,100405.09
2018-07-05T12:52:26.009Z,100404.52
2018-07-05T12:53:40.795Z,100402.30
2018-07-05T12:54:55.612Z,100406.27
2018-07-05T12:56:10.183Z,100404.66
2018-07-05T12:57:24.962Z,100401.88
2018-07-05T12:58:39.861Z,100399.90
2018-07-05T12:59:54.726Z,100404.66
2018-07-05T13:01:09.559Z,100403.27
2018-07-05T13:02:24.319Z,100398.89
2018-07-05T13:03:39.184Z,100406.05
2018-07-05T13:04:54.124Z,100402.69
2018-07-05T13:06:08.811Z,100402.47
2018-07-05T13:07:23.586Z,100397.70
2018-07-05T13:08:38.315Z,100398.30
2018-07-05T13:09:53.149Z,100399.90
2018-07-05T13:11:07.833Z,100398.68
2018-07-05T13:12:22.669Z,100401.08
2018-07-05T13:13:37.445Z,100403.27
2018-07-05T13:14:52.231Z,100403.06
2018-07-05T13:16:06.948Z,100396.70
2018-07-05T13:17:21.623Z,100401.08
2018-07-05T13:18:36.320Z,100397.50
2018-07-05T13:19:51.201Z,100395.52
2018-07-05T13:21:05.914Z,100396.31
2018-07-05T13:22:20.656Z,100395.73
2018-07-05T13:23:35.419Z,100402.30
2018-07-05T13:24:50.283Z,100398.96
2018-07-05T13:26:05.116Z,100408.70
2018-07-05T13:27:19.706Z,100401.36
2018-07-05T13:28:34.438Z,100403.34
2018-07-05T13:29:49.186Z,100398.38
2018-07-05T13:31:03.875Z,100405.53
2018-07-05T13:32:18.589Z,100402.55
2018-07-05T13:33:33.348Z,100402.16
2018-07-05T13:34:48.252Z,100403.77
2018-07-05T13:36:03.087Z,100404.14
2018-07-05T13:37:17.900Z,100412.70
2018-07-05T13:38:32.827Z,100409.33